Boyd Deep Canyon Reserve, California Weather observations

Data are for 10 minute period ending at time listed.
 Day   Time   Solar   Ave.   Ave.  Ave.  Vector  Max.   Baro.   Total    
  of    of     Rad.   Air    Rel.  Wind   Wind   Wind  Press.  Precip.   
Year   Day            Temp.  Hum.  Speed  Dir.   Gust                    
2015   (PST)  Kw/m2    F      %     mph   deg.    mph    mb.     in.     
-------------------------------------------------------------------------
 182    9:00   0.15   82.4    64    5.9     4    11.8   978.3    0.00 
 182    9:10   0.24   82.5    63    2.7    15     8.1   978.4    0.00 
 182    9:20   0.23   83.2    60    2.7    35     7.0   978.3    0.00 
 182    9:30   0.18   83.0    60    3.1    26     5.9   978.4    0.00 
 182    9:40   0.13   83.3    59    1.2    12     3.8   978.4    0.00 
 182    9:50   0.16   83.7    57    1.9   260     4.8   978.4    0.00 
 182   10:00   0.23   84.4    55    2.1   215     5.6   978.1    0.00 
 182   10:10   0.19   84.7    55    6.4   183    10.6   977.7    0.00 
 182   10:20   0.16   85.4    54    8.3   209    14.5   977.3    0.00 
 182   10:30   0.20   86.9    48    3.9   247     9.9   977.6    0.00 
 182   10:40   0.26   88.7    44    2.5    11     4.5   977.4    0.00 
 182   10:50   0.31   88.7    43    3.3    40     6.1   977.0    0.00 
 182   11:00   0.49   89.9    38    3.0    77     4.5   977.0    0.00 
 182   11:10   0.38   91.3    34    4.1    64     7.9   977.1    0.00 
 182   11:20   0.35   92.3    31    2.6   345    13.6   977.2    0.00 
 182   11:30   0.36   90.9    34   10.0   355    16.1   977.4    0.00 
 182   11:40   0.31   90.2    36    6.5   359    10.0   977.4    0.00 
 182   11:50   0.28   90.0    36    3.3   357     6.9   977.4    0.00 
 182   12:00   0.27   90.2    35    4.9     9     7.1   977.6    0.00 
 182   12:10   0.27   90.2    34    4.8     8     7.2   977.7    0.00 
 182   12:20   0.32   91.2    32    3.9     8     7.4   977.7    0.00 
 182   12:30   0.35   90.8    38    8.8    62    13.4   977.8    0.00 
 182   12:40   0.36   90.0    41    6.5    65    11.3   977.8    0.00 
 182   12:50   0.30   89.7    42    8.2    74    12.8   977.7    0.00 
 182   13:00   0.31   89.9    41    6.7    71    10.4   977.6    0.00 
 182   13:10   0.31   90.8    37    6.8    59     9.9   977.5    0.00 
 182   13:20   0.30   91.1    35    7.5    60    12.3   977.5    0.00 
 182   13:30   0.33   90.6    36    7.6    62    11.8   977.4    0.00 
 182   13:40   0.41   91.0    35    5.4    69    10.6   977.4    0.00 
 182   13:50   0.46   91.7    34    6.6    67    11.5   977.3    0.00 
 182   14:00   0.47   91.7    33    6.6    65    11.5   977.1    0.00 
 182   14:10   0.51   92.2    33    6.0    60    10.4   976.9    0.00 
 182   14:20   0.76   93.0    33    6.1    46     9.9   976.7    0.00 
 182   14:30   0.33   92.6    34    6.9    62    13.7   976.6    0.00 
 182   14:40   0.23   91.7    36    6.8    62    11.0   976.4    0.00 
 182   14:50   0.26   91.4    36    4.8    87     8.3   976.2    0.00 
 182   15:00   0.43   92.1    36    5.2    72    10.3   976.0    0.00 
 182   15:10   0.63   92.8    34    7.4    69    12.2   976.0    0.00 
 182   15:20   0.52   93.2    34    6.8    67    11.8   976.0    0.00 
 182   15:30   0.42   92.3    34    6.7    78    12.2   976.0    0.00 
 182   15:40   0.50   92.3    35    8.6    66    14.7   976.0    0.00 
 182   15:50   0.40   92.8    34    6.5    73    12.0   975.9    0.00 
 182   16:00   0.54   92.8    34    5.5    81    11.2   975.8    0.00 
 182   16:10   0.56   93.3    34    6.5    66    12.4   975.8    0.00 
 182   16:20   0.19   92.4    35    6.7    64    13.0   975.8    0.00 
 182   16:30   0.18   92.2    35    7.6    55    12.1   975.8    0.00 
 182   16:40   0.25   92.1    35    8.4    53    12.5   975.7    0.00 
 182   16:50   0.35   92.4    35    9.5    56    14.1   975.5    0.00 
 182   17:00   0.38   92.6    34    8.5    55    12.5   975.5    0.00 
 182   17:10   0.41   92.7    33    8.0    59    14.0   975.6    0.00 
 182   17:20   0.29   93.1    32    6.8    44    12.4   975.6    0.00 
 182   17:30   0.12   92.1    33    6.9    39    16.8   975.7    0.00 
 182   17:40   0.07   91.7    34    7.8    34    12.8   975.7    0.00 
 182   17:50   0.08   91.1    36    6.3    54    10.7   975.6    0.00 
 182   18:00   0.08   90.7    38    6.3    46     9.7   975.6    0.00 
 182   18:10   0.06   90.3    39    6.7    57    10.7   975.7    0.00 
 182   18:20   0.04   89.3    44    8.2    60    15.6   975.8    0.00 
 182   18:30   0.02   88.6    46    5.7    70    11.8   975.7    0.00 
 182   18:40   0.01   88.1    48    7.5    69    12.3   975.8    0.00 
 182   18:50   0.00   87.9    49    5.8    78    11.1   975.9    0.00 
 182   19:00   0.00   87.8    49    5.3    77    10.2   975.8    0.00 
 182   19:10   0.00   88.1    48    5.8    77    10.8   975.7    0.00 
 182   19:20   0.00   87.6    50    8.2    81    12.7   975.7    0.00 
 182   19:30   0.00   87.5    50    7.3    81    11.2   975.7    0.00 
 182   19:40   0.00   87.1    51    8.2    80    11.9   975.7    0.00 
 182   19:50   0.00   86.5    52    7.0    84    12.9   975.8    0.00 
 182   20:00   0.00   86.1    54    5.7    84    10.2   975.8    0.00 
 182   20:10   0.00   86.1    55    6.1    73     9.8   975.9    0.00 
 182   20:20   0.00   85.9    56    5.4    95     9.5   976.0    0.00 
 182   20:30   0.00   86.8    52    3.1   146     5.5   976.1    0.00 
 182   20:40   0.00   87.1    52    3.1   281     5.0   976.1    0.00 
 182   20:50   0.00   86.7    53    2.3    31     5.3   976.2    0.00 
 182   21:00   0.00   86.7    53    1.2   260     2.7   976.3    0.00 
 182   21:10   0.00   86.6    53    1.5   298     3.2   976.4    0.00 
 182   21:20   0.00   86.3    54    1.4    39     3.0   976.4    0.00 
 182   21:30   0.00   85.9    54    1.7    28     4.7   976.4    0.00 
 182   21:40   0.00   85.3    55    4.5    24     8.2   976.5    0.00 
 182   21:50   0.00   84.5    57    6.6    19     8.6   976.6    0.00 
 182   22:00   0.00   83.8    60    4.4    20     7.1   976.7    0.00 
 182   22:10   0.00   83.4    61    2.1    40     3.8   976.7    0.00 
 182   22:20   0.00   83.2    62    1.1    91     2.3   976.7    0.00 
 182   22:30   0.00   83.3    61    2.5   206     4.7   976.7    0.00 
 182   22:40   0.00   83.5    60    2.4   218     3.9   976.7    0.00 
 182   22:50   0.00   83.6    60    0.8    79     2.2   976.6    0.00 
 182   23:00   0.00   83.2    61    2.5    65     3.4   976.8    0.00 
 182   23:10   0.00   83.6    60    1.3   310     3.1   976.8    0.00 
 182   23:20   0.00   83.9    59    1.2   250     2.2   976.9    0.00 
 182   23:30   0.00   84.1    58    0.6   208     1.4   977.0    0.00 
 182   23:40   0.00   84.3    58    0.6    45     3.0   976.9    0.00 
 182   23:50   0.00   84.3    58    1.0    84     6.5   976.7    0.00 
 183    0:00   0.00   84.5    57    2.1    82     5.2   976.5    0.00 
 183    0:10   0.00   84.6    57    3.7    60     7.2   976.6    0.00 
 183    0:20   0.00   84.5    57    7.1    68     9.3   976.7    0.00 
 183    0:30   0.00   84.4    58    5.4    70     9.3   976.6    0.00 
 183    0:40   0.00   84.1    58    5.8    53     8.6   976.6    0.00 
 183    0:50   0.00   83.8    58    3.3    54     7.4   976.7    0.00 
 183    1:00   0.00   83.6    53    4.8     7     8.3   976.8    0.00 
 183    1:10   0.00   82.7    48    4.6     4     6.9   976.7    0.00 
 183    1:20   0.00   82.1    52    3.1    32     6.4   976.8    0.00 
 183    1:30   0.00   82.2    53    1.8   113     4.2   976.8    0.00 
 183    1:40   0.00   82.2    53    0.2   132     1.1   976.7    0.00 
 183    1:50   0.00   82.0    53    0.0     0     0.0   976.6    0.00 
 183    2:00   0.00   81.7    54    0.6    33     1.6   976.6    0.00 
 183    2:10   0.00   81.4    54    0.8    27     1.5   976.7    0.00 
 183    2:20   0.00   81.4    54    0.7   174     2.6   976.8    0.00 
 183    2:30   0.00   81.6    53    2.1   210     2.6   976.8    0.00 
 183    2:40   0.00   81.9    53    1.8    69     4.6   976.9    0.00 
 183    2:50   0.00   82.4    53    3.0   359     6.6   976.8    0.00 
 183    3:00   0.00   82.2    54    3.0   119     4.3   976.8    0.00 
 183    3:10   0.00   82.2    54    1.5   160     2.8   976.9    0.00 
 183    3:20   0.00   81.9    54    0.2   173     0.9   976.9    0.00 
 183    3:30   0.00   81.4    55    0.4   173     1.2   977.0    0.00 
 183    3:40   0.00   81.4    56    0.0     0     0.0   977.0    0.00 
 183    3:50   0.00   81.4    57    0.9   286     2.8   977.1    0.00 
 183    4:00   0.00   81.3    56    1.4   271     2.9   977.1    0.00 
 183    4:10   0.00   81.3    57    2.3   274     3.4   977.2    0.00 
 183    4:20   0.00   81.4    58    0.6   286     3.1   977.3    0.00 
 183    4:30   0.00   81.3    60    1.7   253     2.9   977.4    0.00 
 183    4:40   0.00   80.9    54    2.3    21     3.7   977.5    0.00 
 183    4:50   0.00   80.5    49    1.8    75     3.0   977.5    0.00 
 183    5:00   0.00   80.9    47    1.9    69     2.6   977.5    0.00 
 183    5:10   0.00   81.1    48    1.0    35     2.0   977.5    0.00 
 183    5:20   0.01   81.2    47    0.1   283     0.9   977.6    0.00 
 183    5:30   0.02   81.4    47    1.2   216     2.1   977.6    0.00 
 183    5:40   0.04   81.6    48    1.4   216     2.0   977.7    0.00 
 183    5:50   0.05   82.0    49    1.3   193     2.0   977.7    0.00 
 183    6:00   0.09   82.7    50    0.3   187     1.2   977.8    0.00 
 183    6:10   0.05   84.1    49    0.0     0     0.0   977.8    0.00 
 183    6:20   0.11   83.6    51    0.2   168     1.5   977.8    0.00 
 183    6:30   0.25   85.5    49    1.1    16     4.2   977.8    0.00 
 183    6:40   0.32   85.1    48    5.3     4     8.0   977.8    0.00 
 183    6:50   0.33   84.7    46    5.6   354     7.4   977.8    0.00 
 183    7:00   0.34   84.7    44    5.5   353     8.4   977.8    0.00 
 183    7:10   0.38   85.1    43    5.8     1     8.1   977.9    0.00 
 183    7:20   0.41   85.2    44    5.5     1     8.1   978.0    0.00 
 183    7:30   0.45   85.4    44    4.3   354     6.9   978.1    0.00 
 183    7:40   0.47   86.3    44    2.7     2     6.4   978.0    0.00 
 183    7:50   0.51   86.6    44    3.1   344     5.8   977.9    0.00 
 183    8:00   0.53   87.0    44    2.1   333     4.6   977.9    0.00 
 183    8:10   0.56   88.0    44    2.8    23     7.1   977.9    0.00 
 183    8:20   0.60   88.5    43    3.6     7     7.6   978.0    0.00 
 183    8:30   0.64   88.8    43    3.4   347     6.3   978.1    0.00 
 183    8:40   0.67   88.8    44    4.0   349     6.6   978.0    0.00 
 183    8:50   0.69   89.7    43    4.0    15     8.3   978.0    0.00 

Return to Boyd Deep Canyon Reserve graphs page.


Western Regional Climate Center,wrcc@dri.edu